createdAt,value
2023-08-03T00:01:36.998Z,16.20
2023-08-03T00:04:07.462Z,11.40
2023-08-03T00:06:37.029Z,13.30
2023-08-03T00:09:06.497Z,14.80
2023-08-03T00:11:38.728Z,10.60
2023-08-03T00:14:08.512Z,11.90
2023-08-03T00:16:38.021Z,11.20
2023-08-03T00:19:08.154Z,10.70
2023-08-03T00:21:39.023Z,10.80
2023-08-03T00:24:10.902Z,10.50
2023-08-03T00:26:44.228Z,11.90
2023-08-03T00:29:19.493Z,11.90
2023-08-03T00:31:53.085Z,9.90
2023-08-03T00:34:46.868Z,13.20
2023-08-03T00:37:25.666Z,11.80
2023-08-03T00:39:56.654Z,15.90
2023-08-03T00:42:27.018Z,12.70
2023-08-03T00:44:57.534Z,12.80
2023-08-03T00:47:28.538Z,12.40
2023-08-03T00:49:59.977Z,9.80
2023-08-03T00:52:30.873Z,11.20
2023-08-03T00:55:01.189Z,10.80
2023-08-03T00:57:34.140Z,10.70
2023-08-03T01:00:05.044Z,9.40
2023-08-03T01:02:34.670Z,10.00
2023-08-03T01:05:05.978Z,12.10
2023-08-03T01:07:37.046Z,10.40
2023-08-03T01:10:07.558Z,8.90
2023-08-03T01:12:37.393Z,11.30
2023-08-03T01:15:08.396Z,9.80
2023-08-03T01:17:38.082Z,10.90
2023-08-03T01:20:08.650Z,10.90
2023-08-03T01:22:44.144Z,10.50
2023-08-03T01:25:14.615Z,11.80
2023-08-03T01:27:51.184Z,10.00
2023-08-03T01:30:20.718Z,10.40
2023-08-03T01:32:52.078Z,11.80
2023-08-03T01:35:21.909Z,10.50
2023-08-03T01:37:52.721Z,9.70
2023-08-03T01:40:27.885Z,12.30
2023-08-03T01:42:59.829Z,9.90
2023-08-03T01:45:31.683Z,9.50
2023-08-03T01:48:02.061Z,10.50
2023-08-03T01:50:32.819Z,11.00
2023-08-03T01:53:04.750Z,10.00
2023-08-03T01:55:36.467Z,9.70
2023-08-03T01:58:07.051Z,9.70
2023-08-03T02:00:36.582Z,12.80
2023-08-03T02:03:06.500Z,13.00
2023-08-03T02:05:38.358Z,11.20
2023-08-03T02:08:08.333Z,13.80
2023-08-03T02:10:41.080Z,10.80
2023-08-03T02:13:12.276Z,15.50
2023-08-03T02:15:42.807Z,11.60
2023-08-03T02:18:16.949Z,9.80
2023-08-03T02:20:46.806Z,14.40
2023-08-03T02:23:17.602Z,14.70
2023-08-03T02:25:51.037Z,11.40
2023-08-03T02:28:20.637Z,12.40
2023-08-03T02:30:52.522Z,13.40
2023-08-03T02:33:25.356Z,18.80
2023-08-03T02:35:55.090Z,14.20
2023-08-03T02:38:28.005Z,13.00
2023-08-03T02:40:59.417Z,13.00
2023-08-03T02:43:32.410Z,12.20
2023-08-03T02:46:03.155Z,13.80
2023-08-03T02:48:35.258Z,11.30
2023-08-03T02:51:05.340Z,13.80
2023-08-03T02:53:37.072Z,13.40
2023-08-03T02:56:28.294Z,14.30
2023-08-03T02:58:58.957Z,13.20
2023-08-03T03:01:36.071Z,11.70
2023-08-03T03:04:07.115Z,13.00
2023-08-03T03:06:40.184Z,14.90
2023-08-03T03:09:12.205Z,14.40
2023-08-03T03:11:44.393Z,13.90
2023-08-03T03:14:15.218Z,15.80
2023-08-03T03:16:47.479Z,14.70
2023-08-03T03:19:21.825Z,15.80
2023-08-03T03:21:52.295Z,14.10
2023-08-03T03:24:24.544Z,11.70
2023-08-03T03:26:56.573Z,13.30
2023-08-03T03:29:26.668Z,13.80
2023-08-03T03:31:57.135Z,13.20
2023-08-03T03:34:27.931Z,18.20
2023-08-03T03:36:58.491Z,14.20
2023-08-03T03:39:28.243Z,13.90
2023-08-03T03:41:58.743Z,15.10
2023-08-03T03:44:29.888Z,20.20
2023-08-03T03:47:00.800Z,18.60
2023-08-03T03:49:31.221Z,15.30
2023-08-03T03:52:01.716Z,15.80
2023-08-03T03:54:34.020Z,14.40
2023-08-03T03:57:07.108Z,14.70
2023-08-03T03:59:37.442Z,18.20
2023-08-03T04:05:58.009Z,14.80
2023-08-03T04:08:39.856Z,17.60
2023-08-03T04:11:53.193Z,17.30
2023-08-03T04:14:24.602Z,14.70
2023-08-03T04:17:22.988Z,19.70
2023-08-03T04:19:58.510Z,16.90
2023-08-03T04:22:30.569Z,21.10
2023-08-03T04:25:59.352Z,15.70
2023-08-03T04:28:30.387Z,20.30
2023-08-03T04:31:02.231Z,19.00
2023-08-03T04:33:34.291Z,18.60
2023-08-03T04:36:07.003Z,19.40
2023-08-03T04:38:43.342Z,18.10
2023-08-03T04:41:15.411Z,18.60
2023-08-03T04:43:47.681Z,23.30
2023-08-03T04:46:19.092Z,16.70
2023-08-03T04:48:51.510Z,17.00
2023-08-03T04:51:22.631Z,14.30
2023-08-03T04:53:53.484Z,15.40
2023-08-03T04:56:27.220Z,15.30
2023-08-03T04:58:57.337Z,16.80
2023-08-03T05:01:26.879Z,18.70
2023-08-03T05:03:59.680Z,15.60
2023-08-03T05:06:33.182Z,19.00
2023-08-03T05:12:07.255Z,13.30
2023-08-03T05:14:37.256Z,15.60
2023-08-03T05:17:08.577Z,14.80
2023-08-03T05:20:33.100Z,15.00
2023-08-03T05:23:31.200Z,15.20
2023-08-03T05:28:57.790Z,12.80
2023-08-03T05:33:30.425Z,13.50
2023-08-03T05:36:04.853Z,11.40
2023-08-03T05:38:34.587Z,12.70
2023-08-03T05:45:51.877Z,11.90
2023-08-03T05:48:24.557Z,12.00
2023-08-03T05:51:00.285Z,13.40
2023-08-03T05:53:46.463Z,16.20
2023-08-03T05:57:06.694Z,17.20
2023-08-03T06:00:15.245Z,14.20
2023-08-03T06:02:51.211Z,12.70
2023-08-03T06:05:52.334Z,9.60
2023-08-03T06:08:54.923Z,12.90
2023-08-03T06:11:27.746Z,11.40
2023-08-03T06:13:58.290Z,16.10
2023-08-03T06:16:28.022Z,10.00
2023-08-03T06:19:00.592Z,15.00
2023-08-03T06:21:30.214Z,12.20
2023-08-03T06:24:00.284Z,10.70
2023-08-03T06:26:34.163Z,10.60
2023-08-03T06:29:06.696Z,14.80
2023-08-03T06:31:42.106Z,12.10
2023-08-03T06:34:15.277Z,9.70
2023-08-03T06:36:46.737Z,12.60
2023-08-03T06:39:20.426Z,13.10
2023-08-03T06:41:53.202Z,13.90
2023-08-03T06:44:28.785Z,10.10
2023-08-03T06:47:00.227Z,14.20
2023-08-03T06:49:54.666Z,11.60
2023-08-03T06:52:26.956Z,12.30
2023-08-03T06:57:47.263Z,8.50
2023-08-03T07:00:17.590Z,8.90
2023-08-03T07:02:49.415Z,6.40
2023-08-03T07:05:18.880Z,7.90
2023-08-03T07:07:48.492Z,7.20
2023-08-03T07:10:18.305Z,6.40
2023-08-03T07:12:48.259Z,7.10
2023-08-03T07:15:17.842Z,5.50
2023-08-03T07:17:47.722Z,5.20
2023-08-03T07:20:19.402Z,5.40
2023-08-03T07:22:50.183Z,5.70
2023-08-03T07:25:20.059Z,11.90
2023-08-03T07:27:52.771Z,6.20
2023-08-03T07:30:22.769Z,6.90
2023-08-03T07:32:52.739Z,6.50
2023-08-03T07:35:22.079Z,5.90
2023-08-03T07:37:51.493Z,5.40
2023-08-03T07:40:21.380Z,4.20
2023-08-03T07:42:50.966Z,5.10
2023-08-03T07:47:53.044Z,11.70
2023-08-03T07:50:22.789Z,6.10
2023-08-03T07:52:52.283Z,5.10
2023-08-03T07:55:21.961Z,7.20
2023-08-03T07:57:51.338Z,6.30
2023-08-03T08:00:22.201Z,5.30
2023-08-03T08:02:54.687Z,6.20
2023-08-03T08:05:24.830Z,8.70
2023-08-03T08:07:56.361Z,6.60
2023-08-03T08:10:25.890Z,5.40
2023-08-03T08:12:55.242Z,9.40
2023-08-03T08:15:24.654Z,6.60
2023-08-03T08:17:56.500Z,6.30
2023-08-03T08:20:26.171Z,5.00
2023-08-03T08:22:55.715Z,5.10
2023-08-03T08:25:25.249Z,5.30
2023-08-03T08:27:55.209Z,5.40
2023-08-03T08:30:24.844Z,6.10
2023-08-03T08:32:54.377Z,7.30
2023-08-03T08:35:23.639Z,5.60
2023-08-03T08:38:09.608Z,5.60
2023-08-03T08:40:50.871Z,47.20
2023-08-03T08:43:20.709Z,7.60
2023-08-03T08:45:50.889Z,4.80
2023-08-03T08:53:27.027Z,7.20
2023-08-03T08:59:32.770Z,6.60
2023-08-03T09:01:53.584Z,8.20
2023-08-03T09:04:36.109Z,14.20
2023-08-03T09:09:37.864Z,6.60
2023-08-03T09:12:11.561Z,5.20
2023-08-03T09:14:54.342Z,4.90
2023-08-03T09:17:29.421Z,7.20
2023-08-03T09:25:31.127Z,5.00
2023-08-03T09:34:00.925Z,4.70
2023-08-03T09:36:31.954Z,5.20
2023-08-03T09:44:36.929Z,5.80
2023-08-03T09:47:07.611Z,5.00
2023-08-03T09:49:37.477Z,4.60
2023-08-03T09:52:11.808Z,5.90
2023-08-03T09:55:07.252Z,5.00
2023-08-03T09:57:44.257Z,7.00
2023-08-03T10:00:15.133Z,6.00
2023-08-03T10:02:57.645Z,5.10
2023-08-03T10:05:31.320Z,5.80
2023-08-03T10:08:04.068Z,6.00
2023-08-03T10:10:47.592Z,5.80
2023-08-03T10:13:17.092Z,7.40
2023-08-03T10:15:48.057Z,7.00
2023-08-03T10:18:27.919Z,8.10
2023-08-03T10:21:11.564Z,6.00
2023-08-03T10:24:23.301Z,5.50
2023-08-03T10:27:23.974Z,12.10
2023-08-03T10:29:59.424Z,5.80
2023-08-03T10:32:30.194Z,12.00
2023-08-03T10:35:39.143Z,9.80
2023-08-03T10:38:29.912Z,9.20
2023-08-03T10:41:25.167Z,6.50
2023-08-03T10:44:06.841Z,7.30
2023-08-03T10:46:54.595Z,5.40
2023-08-03T10:49:24.696Z,8.10
2023-08-03T10:52:15.019Z,6.00
2023-08-03T10:54:57.341Z,5.00
2023-08-03T10:57:36.903Z,5.60
2023-08-03T11:00:08.796Z,5.60
2023-08-03T11:02:39.276Z,7.60
2023-08-03T11:05:14.813Z,5.30
2023-08-03T11:07:47.292Z,5.40
2023-08-03T11:10:18.364Z,7.20
2023-08-03T11:12:54.868Z,4.20
2023-08-03T11:15:26.674Z,4.30
2023-08-03T11:17:56.142Z,4.60
2023-08-03T11:20:31.589Z,5.20
2023-08-03T11:23:27.255Z,5.40
2023-08-03T13:27:20.265Z,6.90
2023-08-03T13:29:51.049Z,6.40
2023-08-03T13:32:46.375Z,7.40
2023-08-03T13:35:32.144Z,7.20
2023-08-03T13:38:05.093Z,4.80
2023-08-03T13:40:42.655Z,7.10
2023-08-03T13:43:42.681Z,4.60
2023-08-03T13:46:56.533Z,6.40
2023-08-03T13:49:57.754Z,4.80
2023-08-03T13:53:04.315Z,5.40
2023-08-03T13:55:59.829Z,6.20
2023-08-03T14:01:15.246Z,8.30
2023-08-03T14:03:46.209Z,5.20
2023-08-03T14:06:20.274Z,5.40
2023-08-03T14:11:28.864Z,7.40
2023-08-03T14:14:02.428Z,10.00
2023-08-03T14:16:33.990Z,4.60
2023-08-03T14:19:38.059Z,4.60
2023-08-03T14:22:12.992Z,7.20
2023-08-03T14:27:26.658Z,4.90
2023-08-03T14:30:09.065Z,6.00
2023-08-03T14:32:39.206Z,6.90
2023-08-03T14:38:01.811Z,4.90
2023-08-03T14:40:37.788Z,4.70
2023-08-03T14:43:09.215Z,5.30
2023-08-03T14:46:04.496Z,6.20
2023-08-03T14:54:03.938Z,4.70
2023-08-03T14:56:36.586Z,5.80
2023-08-03T14:59:06.858Z,7.30
2023-08-03T15:01:36.361Z,6.40
2023-08-03T15:04:15.141Z,5.40
2023-08-03T15:06:45.223Z,4.60
2023-08-03T15:09:16.197Z,4.50
2023-08-03T15:11:45.858Z,4.60
2023-08-03T15:14:23.782Z,4.10
2023-08-03T15:17:00.589Z,4.50
2023-08-03T15:22:08.149Z,4.30
2023-08-03T15:24:39.034Z,7.00
2023-08-03T15:27:23.165Z,5.90
2023-08-03T15:29:56.959Z,8.90
2023-08-03T15:35:05.159Z,4.20
2023-08-03T15:37:40.949Z,4.40
2023-08-03T15:40:15.990Z,4.50
2023-08-03T15:42:50.869Z,5.10
2023-08-03T15:45:27.271Z,4.50
2023-08-03T15:50:36.722Z,5.50
2023-08-03T15:58:12.806Z,5.80
2023-08-03T16:00:43.680Z,5.30
2023-08-03T16:03:14.878Z,5.90
2023-08-03T16:05:47.235Z,7.60
2023-08-03T16:08:18.052Z,7.60
2023-08-03T16:10:50.634Z,6.20
2023-08-03T16:13:21.380Z,4.50
2023-08-03T16:16:00.432Z,11.20
2023-08-03T16:18:39.893Z,13.20
2023-08-03T16:21:13.903Z,6.40
2023-08-03T16:23:47.927Z,8.80
2023-08-03T16:30:33.061Z,6.60
2023-08-03T16:35:43.597Z,6.00
2023-08-03T16:38:20.212Z,6.10
2023-08-03T16:41:16.551Z,6.10
2023-08-03T16:43:47.439Z,8.40
2023-08-03T16:46:43.496Z,6.90
2023-08-03T16:49:14.452Z,8.30
2023-08-03T16:51:44.859Z,8.20
2023-08-03T16:54:15.899Z,13.30
2023-08-03T16:56:46.005Z,13.10
2023-08-03T16:59:16.065Z,12.70
2023-08-03T17:01:47.488Z,11.50
2023-08-03T17:04:17.042Z,11.50
2023-08-03T17:06:47.068Z,12.40
2023-08-03T17:09:17.025Z,10.20
2023-08-03T17:11:46.872Z,7.30
2023-08-03T17:14:19.059Z,7.60
2023-08-03T17:16:50.834Z,8.70
2023-08-03T17:19:21.873Z,8.00
2023-08-03T17:21:53.170Z,10.70
2023-08-03T17:24:23.195Z,10.40
2023-08-03T17:29:24.592Z,12.20
2023-08-03T17:31:54.263Z,14.60
2023-08-03T17:34:25.959Z,17.80
2023-08-03T17:36:56.651Z,14.80
2023-08-03T17:39:26.574Z,11.40
2023-08-03T17:42:01.502Z,15.20
2023-08-03T17:44:31.864Z,10.50
2023-08-03T17:47:03.306Z,7.90
2023-08-03T17:50:00.729Z,9.70
2023-08-03T17:52:34.147Z,8.90
2023-08-03T17:55:10.216Z,8.70
2023-08-03T17:58:04.676Z,5.90
2023-08-03T18:04:18.434Z,7.80
2023-08-03T18:06:54.964Z,15.70
2023-08-03T18:09:24.869Z,12.20
2023-08-03T18:11:56.697Z,7.40
2023-08-03T18:14:26.313Z,8.20
2023-08-03T18:16:58.174Z,8.80
2023-08-03T18:19:28.643Z,10.40
2023-08-03T18:21:59.829Z,7.00
2023-08-03T18:24:33.397Z,9.10
2023-08-03T18:27:09.825Z,10.90
2023-08-03T18:29:45.651Z,8.80
2023-08-03T18:32:18.367Z,5.90
2023-08-03T18:34:58.373Z,8.50
2023-08-03T18:37:30.795Z,7.50
2023-08-03T18:40:17.399Z,6.10
2023-08-03T18:43:23.067Z,6.70
2023-08-03T18:46:37.142Z,7.50
2023-08-03T18:49:09.442Z,7.30
2023-08-03T18:52:02.131Z,7.50
2023-08-03T18:55:29.241Z,8.10
2023-08-03T19:02:14.620Z,8.20
2023-08-03T19:05:28.738Z,6.40
2023-08-03T19:08:21.099Z,5.90
2023-08-03T19:11:04.890Z,5.90
2023-08-03T19:14:24.464Z,5.80
2023-08-03T19:17:27.033Z,6.00
2023-08-03T19:19:58.804Z,5.90
2023-08-03T19:22:30.597Z,6.10
2023-08-03T19:25:08.773Z,6.20
2023-08-03T19:27:39.345Z,6.70
2023-08-03T19:30:15.079Z,8.10
2023-08-03T19:33:10.787Z,5.70
2023-08-03T19:36:05.611Z,7.30
2023-08-03T19:38:53.228Z,6.00
2023-08-03T19:41:42.716Z,8.40
2023-08-03T19:44:34.580Z,7.30
2023-08-03T19:47:20.807Z,6.30
2023-08-03T19:55:29.254Z,6.00
2023-08-03T19:59:31.432Z,5.80
2023-08-03T20:06:47.599Z,6.40
2023-08-03T20:09:19.370Z,5.90
2023-08-03T20:12:06.340Z,6.10
2023-08-03T20:15:10.567Z,6.50
2023-08-03T20:17:45.804Z,5.90
2023-08-03T20:20:25.249Z,6.50
2023-08-03T20:23:37.291Z,5.40
2023-08-03T20:26:44.069Z,5.90
2023-08-03T20:29:20.728Z,5.40
2023-08-03T20:32:43.196Z,5.60
2023-08-03T20:36:01.955Z,6.50
2023-08-03T20:39:13.834Z,5.60
2023-08-03T20:45:48.745Z,5.60
2023-08-03T20:57:35.877Z,6.00
2023-08-03T21:00:07.949Z,5.60
2023-08-03T21:02:37.804Z,7.40
2023-08-03T21:05:22.943Z,5.40
2023-08-03T21:08:31.482Z,5.80
2023-08-03T21:11:09.344Z,6.60
2023-08-03T21:24:10.487Z,5.30
2023-08-03T21:27:05.923Z,5.30
2023-08-03T21:30:34.130Z,5.00
2023-08-03T21:33:24.438Z,5.50
2023-08-03T21:40:01.068Z,6.00
2023-08-03T21:51:22.742Z,6.00
2023-08-03T21:54:41.468Z,5.30
2023-08-03T21:58:19.995Z,5.60
2023-08-03T22:02:08.980Z,4.70
2023-08-03T22:15:59.634Z,5.60
2023-08-03T22:18:33.203Z,7.00
2023-08-03T22:22:55.484Z,5.70
2023-08-03T22:25:26.930Z,5.20
2023-08-03T22:28:19.024Z,4.90
2023-08-03T22:31:06.911Z,5.90
2023-08-03T22:34:04.851Z,6.80
2023-08-03T22:37:15.462Z,5.60
2023-08-03T22:55:18.679Z,5.90
2023-08-03T23:09:27.146Z,5.40
2023-08-03T23:15:40.014Z,5.90
2023-08-03T23:18:45.716Z,7.80
2023-08-03T23:22:05.744Z,6.70
2023-08-03T23:28:00.551Z,6.20
2023-08-03T23:31:24.406Z,5.70
2023-08-03T23:34:34.927Z,5.60
2023-08-03T23:37:31.690Z,5.80
2023-08-03T23:40:03.570Z,5.80
2023-08-03T23:42:33.926Z,6.20
2023-08-03T23:49:04.169Z,6.70
2023-08-03T23:51:48.371Z,6.50
2023-08-03T23:54:42.630Z,5.70
2023-08-03T23:58:11.117Z,5.80
